»·PEaware :: TPX485 KLAS-KLGB

TPX485 :: KLAS-KLGB

FLIGHT INFORMATION

Flight Status: Arrived
Operator: ATP Experience
More flights by this operator :: More flights under this callsign
Pilot: Dave P. (45)
Aircraft: BOEING 737-800
(B738)
More flights by this aircraft type
Origin: KLAS McCarran Intl
United States
Destination: KLGB Long Beach
United States
More flights between these airports :: More routes between these airports
Route: +BOACH8 WHIGG FEYLA DSNEE3
File this flight plan on PilotEdge
Remarks: PBN / A1B1C1D1S1S2 DOF / 180704 REG / N738PM OPR / TPX PER / D RMK / TCAS SIMBRIEF
Altitude:
(Current/Filed)
28,000ft
Speed:
(Current/Filed)
475kts
Departed: 03-Jul-18 07:21 PM
Arrived: 03-Jul-18 08:05 PM
Distance/Time
Traveled:
200nm/0:44
Distance/Time
To Go:
Arrived

Flight Plot

Page will automatically refresh every two minutes.

Flight plan parsing failed; only flown route is shown


Map Options




Map Legend


Flown Route
Filed Route
Departure Airport
Arrival Airport
Navaid (VOR, NDB)
Fix

Horizontal Profiles

Position Reports

Time Latitude Longitude Heading Altitude Ground
Speed
03-Jul-18 18:58 36.080823 -115.138358 315 2189ft 0kts
03-Jul-18 18:58 36.080823 -115.138358 315 2189ft 0kts
03-Jul-18 18:59 36.080823 -115.138358 315 2189ft 0kts
03-Jul-18 19:01 36.080823 -115.138358 315 2189ft 0kts
03-Jul-18 19:02 36.080823 -115.138358 315 2189ft 0kts
03-Jul-18 19:03 36.080823 -115.138358 315 2189ft 0kts
03-Jul-18 19:04 36.080823 -115.138358 315 2189ft 0kts
03-Jul-18 19:05 36.080823 -115.138358 315 2189ft 0kts
03-Jul-18 19:06 36.080823 -115.138358 315 2189ft 0kts
03-Jul-18 19:07 36.080823 -115.138358 315 2189ft 0kts
03-Jul-18 19:07 36.080823 -115.138358 315 2189ft 0kts
03-Jul-18 19:08 36.080823 -115.138358 315 2189ft 0kts
03-Jul-18 19:09 36.080823 -115.138358 315 2189ft 0kts
03-Jul-18 19:10 36.080823 -115.138358 315 2189ft 0kts
03-Jul-18 19:11 36.080823 -115.138358 315 2189ft 0kts
03-Jul-18 19:12 36.080588 -115.138069 315 2189ft 2kts
03-Jul-18 19:13 36.080323 -115.137744 315 2189ft 0kts
03-Jul-18 19:14 36.080323 -115.137744 315 2189ft 0kts
03-Jul-18 19:15 36.080000 -115.137347 113 2189ft 9kts
03-Jul-18 19:16 36.079016 -115.135948 133 2189ft 0kts
03-Jul-18 19:17 36.078239 -115.134190 89 2189ft 12kts
03-Jul-18 19:18 36.078243 -115.127827 90 2189ft 21kts
03-Jul-18 19:19 36.077965 -115.122678 117 2189ft 15kts
03-Jul-18 19:20 36.076677 -115.121293 179 2189ft 8kts
03-Jul-18 19:21 36.076337 -115.135016 269 2189ft 120kts
03-Jul-18 19:22 36.077027 -115.189940 265 3681ft 175kts
03-Jul-18 19:23 36.065287 -115.257636 219 4728ft 242kts
03-Jul-18 19:24 35.997602 -115.289521 200 6809ft 271kts
03-Jul-18 19:25 35.923106 -115.307688 186 8792ft 278kts
03-Jul-18 19:26 35.843386 -115.314182 178 11081ft 307kts
03-Jul-18 19:27 35.749210 -115.302876 176 12491ft 360kts
03-Jul-18 19:28 35.654898 -115.331099 221 14967ft 369kts
03-Jul-18 19:29 35.582214 -115.423925 227 17359ft 383kts
03-Jul-18 19:30 35.509028 -115.522140 227 18844ft 393kts
03-Jul-18 19:31 35.435548 -115.621213 227 18855ft 393kts
03-Jul-18 19:32 35.361200 -115.721490 227 20396ft 402kts
03-Jul-18 19:33 35.284713 -115.823921 227 22248ft 414kts
03-Jul-18 19:34 35.205193 -115.929178 225 23958ft 425kts
03-Jul-18 19:35 35.121659 -116.033884 225 25483ft 435kts
03-Jul-18 19:36 35.036785 -116.140956 225 26883ft 443kts
03-Jul-18 19:37 34.950790 -116.248647 225 27883ft 444kts
03-Jul-18 19:38 34.866136 -116.354840 226 27888ft 428kts
03-Jul-18 19:39 34.784726 -116.458668 226 27921ft 411kts
03-Jul-18 19:40 34.710062 -116.553395 226 26573ft 391kts
03-Jul-18 19:41 34.626034 -116.641489 218 24175ft 394kts
03-Jul-18 19:42 34.541339 -116.723403 218 22284ft 383kts
03-Jul-18 19:43 34.462355 -116.806872 224 20482ft 373kts
03-Jul-18 19:44 34.388838 -116.893442 223 18712ft 362kts
03-Jul-18 19:45 34.316559 -116.977046 223 16910ft 356kts
03-Jul-18 19:46 34.241704 -117.052704 211 15215ft 347kts
03-Jul-18 19:47 34.158632 -117.110317 206 13539ft 341kts
03-Jul-18 19:48 34.072676 -117.155637 204 12232ft 330kts
03-Jul-18 19:49 33.993309 -117.203932 220 11673ft 306kts
03-Jul-18 19:50 33.937582 -117.278492 230 10781ft 287kts
03-Jul-18 19:51 33.887763 -117.349078 229 9762ft 261kts
03-Jul-18 19:52 33.841916 -117.413755 229 8608ft 249kts
03-Jul-18 19:53 33.806572 -117.483992 249 7819ft 244kts
03-Jul-18 19:54 33.783449 -117.561044 249 7477ft 244kts
03-Jul-18 19:55 33.760161 -117.637669 249 7005ft 247kts
03-Jul-18 19:56 33.737579 -117.713840 249 6386ft 226kts
03-Jul-18 19:57 33.716442 -117.785666 249 5000ft 227kts
03-Jul-18 19:58 33.696845 -117.852114 249 4371ft 189kts
03-Jul-18 19:59 33.679306 -117.911301 249 4016ft 187kts
03-Jul-18 20:00 33.679375 -117.972145 281 3454ft 185kts
03-Jul-18 20:01 33.709681 -118.021017 314 2833ft 191kts
03-Jul-18 20:02 33.747352 -118.066217 313 1811ft 187kts
03-Jul-18 20:03 33.781894 -118.107944 312 882ft 161kts
03-Jul-18 20:04 33.811651 -118.144012 313 85ft 143kts
03-Jul-18 20:05 33.821711 -118.153688 90 68ft 17kts
03-Jul-18 20:06 33.821683 -118.148124 89 68ft 14kts
03-Jul-18 20:07 33.819578 -118.147123 180 68ft 11kts
03-Jul-18 20:08 33.819069 -118.146340 88 68ft 0kts
03-Jul-18 20:10 33.819069 -118.146340 88 68ft 0kts
03-Jul-18 20:11 33.819069 -118.146340 88 68ft 0kts

Navigation Log

Ident Type
Flight plan parsing failed, navigation log unavailable